createdAt,value
2018-03-04T00:01:43.042Z,0.80
2018-03-04T00:04:12.079Z,0.70
2018-03-04T00:06:40.408Z,1.60
2018-03-04T00:09:08.711Z,0.90
2018-03-04T00:11:37.010Z,1.35
2018-03-04T00:14:05.335Z,0.80
2018-03-04T00:16:33.627Z,1.83
2018-03-04T00:19:02.669Z,1.57
2018-03-04T00:21:30.971Z,0.70
2018-03-04T00:23:59.249Z,0.70
2018-03-04T00:26:27.608Z,0.70
2018-03-04T00:28:55.932Z,2.73
2018-03-04T00:31:24.970Z,0.70
2018-03-04T00:33:53.269Z,1.00
2018-03-04T00:36:21.539Z,0.82
2018-03-04T00:38:49.879Z,1.37
2018-03-04T00:41:18.161Z,0.90
2018-03-04T00:43:46.449Z,0.70
2018-03-04T00:46:14.737Z,0.80
2018-03-04T00:48:43.021Z,0.87
2018-03-04T00:51:11.306Z,0.80
2018-03-04T00:53:39.583Z,0.80
2018-03-04T00:56:07.846Z,1.70
2018-03-04T00:58:36.174Z,1.17
2018-03-04T01:01:04.439Z,6.30
2018-03-04T01:03:32.718Z,0.70
2018-03-04T01:06:01.007Z,3.42
2018-03-04T01:08:29.285Z,0.73
2018-03-04T01:10:57.608Z,0.70
2018-03-04T01:13:25.919Z,1.77
2018-03-04T01:15:54.197Z,0.80
2018-03-04T01:18:22.518Z,0.90
2018-03-04T01:20:50.813Z,2.25
2018-03-04T01:23:19.122Z,3.85
2018-03-04T01:25:47.419Z,2.25
2018-03-04T01:28:15.714Z,0.80
2018-03-04T01:30:45.042Z,0.90
2018-03-04T01:33:14.063Z,1.52
2018-03-04T01:35:42.329Z,0.77
2018-03-04T01:38:10.628Z,3.97
2018-03-04T01:40:38.910Z,0.70
2018-03-04T01:43:07.257Z,0.88
2018-03-04T01:45:36.286Z,2.53
2018-03-04T01:48:04.553Z,0.98
2018-03-04T01:50:32.841Z,4.45
2018-03-04T01:53:01.120Z,0.82
2018-03-04T01:55:29.431Z,4.87
2018-03-04T01:57:58.478Z,0.90
2018-03-04T02:00:26.772Z,1.60
2018-03-04T02:02:55.082Z,4.03
2018-03-04T02:05:23.367Z,0.80
2018-03-04T02:07:52.459Z,1.30
2018-03-04T02:10:20.726Z,1.00
2018-03-04T02:12:49.020Z,0.70
2018-03-04T02:15:17.311Z,0.80
2018-03-04T02:17:45.594Z,1.55
2018-03-04T02:20:13.929Z,0.70
2018-03-04T02:22:42.210Z,0.80
2018-03-04T02:25:10.499Z,0.80
2018-03-04T02:27:39.229Z,4.30
2018-03-04T02:30:07.476Z,0.70
2018-03-04T02:32:36.554Z,3.83
2018-03-04T02:35:04.824Z,0.95
2018-03-04T02:37:33.106Z,0.80
2018-03-04T02:40:01.425Z,3.53
2018-03-04T02:42:29.697Z,0.65
2018-03-04T02:44:58.745Z,0.80
2018-03-04T02:47:27.069Z,0.90
2018-03-04T02:49:56.124Z,0.87
2018-03-04T02:52:26.275Z,1.95
2018-03-04T02:54:55.297Z,0.80
2018-03-04T02:57:23.574Z,0.70
2018-03-04T02:59:51.891Z,3.80
2018-03-04T03:02:20.161Z,3.37
2018-03-04T03:04:48.473Z,1.23
2018-03-04T03:07:17.504Z,2.85
2018-03-04T03:09:45.772Z,0.70
2018-03-04T03:12:14.057Z,0.95
2018-03-04T03:14:42.333Z,1.00
2018-03-04T03:17:10.666Z,0.70
2018-03-04T03:19:38.945Z,0.70
2018-03-04T03:22:07.232Z,1.33
2018-03-04T03:24:35.526Z,0.70
2018-03-04T03:27:04.570Z,0.70
2018-03-04T03:29:32.885Z,1.50
2018-03-04T03:32:01.175Z,3.42
2018-03-04T03:34:29.470Z,0.70
2018-03-04T03:36:57.776Z,0.77
2018-03-04T03:39:26.043Z,0.70
2018-03-04T03:41:54.361Z,0.70
2018-03-04T03:44:22.629Z,0.80
2018-03-04T03:46:50.905Z,0.70
2018-03-04T03:49:35.993Z,0.70
2018-03-04T03:52:04.273Z,0.75
2018-03-04T03:54:32.547Z,6.73
2018-03-04T03:57:00.874Z,0.60
2018-03-04T03:59:29.149Z,0.80
2018-03-04T04:01:57.430Z,0.80
2018-03-04T04:04:25.739Z,0.77
2018-03-04T04:06:54.007Z,2.72
2018-03-04T04:09:22.312Z,0.77
2018-03-04T04:11:50.595Z,1.70
2018-03-04T04:14:18.914Z,0.90
2018-03-04T04:16:47.207Z,1.35
2018-03-04T04:19:15.477Z,1.40
2018-03-04T04:21:43.782Z,0.93
2018-03-04T04:24:12.063Z,1.00
2018-03-04T04:26:41.296Z,4.10
2018-03-04T04:29:09.562Z,0.80
2018-03-04T04:31:37.865Z,3.97
2018-03-04T04:34:06.182Z,0.77
2018-03-04T04:36:34.462Z,1.98
2018-03-04T04:39:02.772Z,0.90
2018-03-04T04:41:31.064Z,3.25
2018-03-04T04:43:59.378Z,0.80
2018-03-04T04:46:27.673Z,0.82
2018-03-04T04:48:56.704Z,1.33
2018-03-04T04:51:25.034Z,0.68
2018-03-04T04:53:53.359Z,4.70
2018-03-04T04:56:21.581Z,0.70
2018-03-04T04:58:49.894Z,5.37
2018-03-04T05:01:18.182Z,1.10
2018-03-04T05:03:46.446Z,3.83
2018-03-04T05:06:14.747Z,0.90
2018-03-04T05:08:43.048Z,5.18
2018-03-04T05:11:11.390Z,0.60
2018-03-04T05:13:39.653Z,0.60
2018-03-04T05:16:07.931Z,2.28
2018-03-04T05:18:36.237Z,0.60
2018-03-04T05:21:04.534Z,1.08
2018-03-04T05:23:32.838Z,0.80
2018-03-04T05:26:01.111Z,0.70
2018-03-04T05:28:29.388Z,0.70
2018-03-04T05:30:57.674Z,3.35
2018-03-04T05:33:25.946Z,0.80
2018-03-04T05:35:54.274Z,0.70
2018-03-04T05:38:22.556Z,0.70
2018-03-04T05:40:50.839Z,1.30
2018-03-04T05:43:19.145Z,2.85
2018-03-04T05:45:47.422Z,0.90
2018-03-04T05:48:16.499Z,0.90
2018-03-04T05:50:44.791Z,0.60
2018-03-04T05:53:13.856Z,0.68
2018-03-04T05:55:42.170Z,0.70
2018-03-04T05:58:11.223Z,2.45
2018-03-04T06:00:39.539Z,0.70
2018-03-04T06:03:09.494Z,3.20
2018-03-04T06:05:38.652Z,0.70
2018-03-04T06:08:07.759Z,0.70
2018-03-04T06:10:36.799Z,0.73
2018-03-04T06:13:05.109Z,3.20
2018-03-04T06:15:33.408Z,3.65
2018-03-04T06:18:02.462Z,1.42
2018-03-04T06:20:30.806Z,3.37
2018-03-04T06:22:59.082Z,1.15
2018-03-04T06:25:27.358Z,2.80
2018-03-04T06:27:55.700Z,1.98
2018-03-04T06:30:23.975Z,4.00
2018-03-04T06:32:52.239Z,3.03
2018-03-04T06:35:20.535Z,3.80
2018-03-04T06:37:48.897Z,1.05
2018-03-04T06:40:17.221Z,4.28
2018-03-04T06:42:46.247Z,4.53
2018-03-04T06:45:14.530Z,1.67
2018-03-04T06:47:42.837Z,3.87
2018-03-04T06:50:11.103Z,0.90
2018-03-04T06:52:39.422Z,2.55
2018-03-04T06:55:08.475Z,4.53
2018-03-04T06:57:36.767Z,6.03
2018-03-04T07:00:05.073Z,4.80
2018-03-04T07:02:33.379Z,1.40
2018-03-04T07:05:01.697Z,3.30
2018-03-04T07:07:30.000Z,7.95
2018-03-04T07:09:59.049Z,1.50
2018-03-04T07:12:27.392Z,3.35
2018-03-04T07:14:56.355Z,2.20
2018-03-04T07:17:24.739Z,1.05
2018-03-04T07:19:53.445Z,3.47
2018-03-04T07:22:22.595Z,2.35
2018-03-04T07:24:50.898Z,0.60
2018-03-04T07:27:19.215Z,2.37
2018-03-04T07:29:47.514Z,6.47
2018-03-04T07:32:16.222Z,1.48
2018-03-04T07:34:44.534Z,1.30
2018-03-04T07:37:13.639Z,1.55
2018-03-04T07:39:42.715Z,3.50
2018-03-04T07:42:10.982Z,3.30
2018-03-04T07:44:39.591Z,3.78
2018-03-04T07:47:08.626Z,6.07
2018-03-04T07:49:36.941Z,3.80
2018-03-04T07:52:05.251Z,4.25
2018-03-04T07:54:34.391Z,2.30
2018-03-04T07:57:04.025Z,2.75
2018-03-04T07:59:32.357Z,5.80
2018-03-04T08:02:01.147Z,11.00
2018-03-04T08:04:29.709Z,4.55
2018-03-04T08:06:58.835Z,6.25
2018-03-04T08:09:27.819Z,4.40
2018-03-04T08:11:56.155Z,8.73
2018-03-04T08:14:24.494Z,0.98
2018-03-04T08:16:52.928Z,3.15
2018-03-04T08:19:22.116Z,5.60
2018-03-04T08:21:50.580Z,3.17
2018-03-04T08:24:30.766Z,1.27
2018-03-04T08:27:10.726Z,7.55
2018-03-04T08:29:39.849Z,6.50
2018-03-04T08:32:08.146Z,3.47
2018-03-04T08:34:36.496Z,4.07
2018-03-04T08:37:04.892Z,20.12
2018-03-04T08:39:34.364Z,5.03
2018-03-04T08:42:03.422Z,8.10
2018-03-04T08:44:32.515Z,1.80
2018-03-04T08:47:01.606Z,5.18
2018-03-04T08:49:29.966Z,4.63
2018-03-04T08:51:58.279Z,4.35
2018-03-04T08:54:26.828Z,3.47
2018-03-04T08:56:55.160Z,2.40
2018-03-04T08:59:23.488Z,3.60
2018-03-04T09:01:51.889Z,3.20
2018-03-04T09:04:20.184Z,2.03
2018-03-04T09:06:53.653Z,6.82
2018-03-04T09:09:22.906Z,5.10
2018-03-04T09:11:51.254Z,5.12
2018-03-04T09:14:19.601Z,4.83
2018-03-04T09:16:47.879Z,6.93
2018-03-04T09:19:16.216Z,12.63
2018-03-04T09:21:45.604Z,3.90
2018-03-04T09:24:13.893Z,5.37
2018-03-04T09:26:43.006Z,3.00
2018-03-04T09:29:11.371Z,7.07
2018-03-04T09:31:39.792Z,5.57
2018-03-04T09:34:08.149Z,4.97
2018-03-04T09:36:36.459Z,7.20
2018-03-04T09:39:04.807Z,2.90
2018-03-04T09:41:33.082Z,3.75
2018-03-04T09:44:02.446Z,1.90
2018-03-04T09:46:30.740Z,7.57
2018-03-04T09:48:58.967Z,3.40
2018-03-04T09:51:27.299Z,5.20
2018-03-04T09:53:55.569Z,10.27
2018-03-04T09:56:23.967Z,5.83
2018-03-04T09:58:52.241Z,3.53
2018-03-04T10:01:20.517Z,7.40
2018-03-04T10:03:48.907Z,11.13
2018-03-04T10:06:18.041Z,5.47
2018-03-04T10:08:46.342Z,2.90
2018-03-04T10:11:14.646Z,3.80
2018-03-04T10:13:42.944Z,8.40
2018-03-04T10:16:12.011Z,1.17
2018-03-04T10:18:40.311Z,6.57
2018-03-04T10:21:09.367Z,8.33
2018-03-04T10:23:37.677Z,8.20
2018-03-04T10:26:05.960Z,3.90
2018-03-04T10:28:34.252Z,7.80
2018-03-04T10:31:03.321Z,5.00
2018-03-04T10:33:31.600Z,4.03
2018-03-04T10:35:59.937Z,5.30
2018-03-04T10:38:28.264Z,8.63
2018-03-04T10:40:56.570Z,11.97
2018-03-04T10:43:24.873Z,2.23
2018-03-04T10:45:53.288Z,7.10
2018-03-04T10:48:21.621Z,7.60
2018-03-04T10:50:49.912Z,6.57
2018-03-04T10:53:18.328Z,3.03
2018-03-04T10:55:46.713Z,11.07
2018-03-04T10:58:15.027Z,19.03
2018-03-04T11:00:47.353Z,20.77
2018-03-04T11:03:16.211Z,9.90
2018-03-04T11:05:44.539Z,17.43
2018-03-04T11:08:13.687Z,22.13
2018-03-04T11:10:42.075Z,21.27
2018-03-04T11:13:10.383Z,18.93
2018-03-04T11:15:38.748Z,20.37
2018-03-04T11:18:08.016Z,24.73
2018-03-04T11:20:36.445Z,20.40
2018-03-04T11:23:04.783Z,19.63
2018-03-04T11:25:33.077Z,16.10
2018-03-04T11:28:01.407Z,25.70
2018-03-04T11:30:29.816Z,23.53
2018-03-04T11:32:58.276Z,25.30
2018-03-04T11:35:28.283Z,16.30
2018-03-04T11:37:56.549Z,18.40
2018-03-04T11:40:24.874Z,20.67
2018-03-04T11:42:53.343Z,16.20
2018-03-04T11:45:21.651Z,18.60
2018-03-04T11:47:49.950Z,21.43
2018-03-04T11:50:18.248Z,22.83
2018-03-04T11:52:46.552Z,21.97
2018-03-04T11:55:14.871Z,21.13
2018-03-04T11:57:43.152Z,21.63
2018-03-04T12:00:12.247Z,18.03
2018-03-04T12:02:40.596Z,18.43
2018-03-04T12:05:09.013Z,21.70
2018-03-04T12:07:37.281Z,24.00
2018-03-04T12:10:05.607Z,23.30
2018-03-04T12:12:34.659Z,22.40
2018-03-04T12:15:02.935Z,20.20
2018-03-04T12:17:31.232Z,27.70
2018-03-04T12:19:59.547Z,26.17
2018-03-04T12:22:27.889Z,26.90
2018-03-04T12:25:01.917Z,24.90
2018-03-04T12:27:30.249Z,22.33
2018-03-04T12:29:58.546Z,26.03
2018-03-04T12:32:26.832Z,24.70
2018-03-04T12:34:55.159Z,25.90
2018-03-04T12:37:23.442Z,24.60
2018-03-04T12:39:51.798Z,26.07
2018-03-04T12:42:20.105Z,28.27
2018-03-04T12:44:48.438Z,27.93
2018-03-04T12:47:19.052Z,28.87
2018-03-04T12:49:47.592Z,29.10
2018-03-04T12:52:16.031Z,30.40
2018-03-04T12:54:45.012Z,29.10
2018-03-04T12:57:17.959Z,36.70
2018-03-04T12:59:46.546Z,27.23
2018-03-04T13:02:15.103Z,28.50
2018-03-04T13:04:44.167Z,27.63
2018-03-04T13:07:13.228Z,31.40
2018-03-04T13:09:41.641Z,29.20
2018-03-04T13:12:14.850Z,28.40
2018-03-04T13:14:43.994Z,27.23
2018-03-04T13:17:12.283Z,28.83
2018-03-04T13:19:40.562Z,27.83
2018-03-04T13:22:08.885Z,28.30
2018-03-04T13:24:37.238Z,27.90
2018-03-04T13:27:05.592Z,25.93
2018-03-04T13:29:33.944Z,27.23
2018-03-04T13:32:02.996Z,27.60
2018-03-04T13:34:31.353Z,25.77
2018-03-04T13:37:00.465Z,26.63
2018-03-04T13:39:28.796Z,26.97
2018-03-04T13:41:57.107Z,26.50
2018-03-04T13:44:25.416Z,27.30
2018-03-04T13:46:53.755Z,26.77
2018-03-04T13:49:25.513Z,29.60
2018-03-04T13:51:53.876Z,27.00
2018-03-04T13:54:22.155Z,25.13
2018-03-04T13:56:50.452Z,26.97
2018-03-04T13:59:18.885Z,25.63
2018-03-04T14:01:47.188Z,26.87
2018-03-04T14:04:15.501Z,26.27
2018-03-04T14:06:43.850Z,27.33
2018-03-04T14:09:12.179Z,27.63
2018-03-04T14:11:40.596Z,27.90
2018-03-04T14:14:09.731Z,30.70
2018-03-04T14:16:38.077Z,28.10
2018-03-04T14:19:07.185Z,31.13
2018-03-04T14:21:41.135Z,32.17
2018-03-04T14:24:09.491Z,29.00
2018-03-04T14:26:37.795Z,29.90
2018-03-04T14:29:06.096Z,30.23
2018-03-04T14:31:34.477Z,29.30
2018-03-04T14:34:02.770Z,31.97
2018-03-04T14:36:31.819Z,30.90
2018-03-04T14:39:00.129Z,27.33
2018-03-04T14:41:28.423Z,28.93
2018-03-04T14:43:57.541Z,30.60
2018-03-04T14:46:26.189Z,29.90
2018-03-04T14:48:54.493Z,28.23
2018-03-04T14:51:23.688Z,25.77
2018-03-04T14:53:53.421Z,28.00
2018-03-04T14:56:21.796Z,24.93
2018-03-04T14:58:50.158Z,27.73
2018-03-04T15:01:19.208Z,26.10
2018-03-04T15:03:48.399Z,27.10
2018-03-04T15:06:21.072Z,24.80
2018-03-04T15:08:49.392Z,24.37
2018-03-04T15:11:17.840Z,23.40
2018-03-04T15:13:46.169Z,26.47
2018-03-04T15:16:15.234Z,26.83
2018-03-04T15:18:43.623Z,23.30
2018-03-04T15:21:12.060Z,26.90
2018-03-04T15:23:40.499Z,24.87
2018-03-04T15:26:08.853Z,23.23
2018-03-04T15:28:37.170Z,25.87
2018-03-04T15:31:06.305Z,24.93
2018-03-04T15:33:34.642Z,23.17
2018-03-04T15:36:03.684Z,24.37
2018-03-04T15:38:32.048Z,26.93
2018-03-04T15:41:00.382Z,26.73
2018-03-04T15:43:28.702Z,27.87
2018-03-04T15:45:57.024Z,23.53
2018-03-04T15:48:27.297Z,27.33
2018-03-04T15:50:55.944Z,25.23
2018-03-04T15:53:24.212Z,27.43
2018-03-04T15:55:52.603Z,21.70
2018-03-04T15:58:20.988Z,23.87
2018-03-04T16:00:49.290Z,13.90
2018-03-04T16:03:18.395Z,25.17
2018-03-04T16:05:46.664Z,21.30
2018-03-04T16:08:14.985Z,23.67
2018-03-04T16:10:43.303Z,24.47
2018-03-04T16:13:12.401Z,22.60
2018-03-04T16:15:41.491Z,22.30
2018-03-04T16:18:10.146Z,23.15
2018-03-04T16:20:38.458Z,22.40
2018-03-04T16:23:07.542Z,23.13
2018-03-04T16:25:35.858Z,21.50
2018-03-04T16:28:05.022Z,23.97
2018-03-04T16:30:33.356Z,23.77
2018-03-04T16:33:01.647Z,5.33
2018-03-04T16:35:29.981Z,7.27
2018-03-04T16:37:58.285Z,3.33
2018-03-04T16:40:26.607Z,5.33
2018-03-04T16:42:54.997Z,7.00
2018-03-04T16:45:23.256Z,9.70
2018-03-04T16:47:58.794Z,3.37
2018-03-04T16:50:27.098Z,13.33
2018-03-04T16:52:55.386Z,6.13
2018-03-04T16:55:23.706Z,4.70
2018-03-04T16:57:52.029Z,2.30
2018-03-04T17:00:20.403Z,7.30
2018-03-04T17:02:48.696Z,7.80
2018-03-04T17:05:17.155Z,2.87
2018-03-04T17:07:45.453Z,10.67
2018-03-04T17:10:13.738Z,6.53
2018-03-04T17:12:42.074Z,5.30
2018-03-04T17:15:10.372Z,9.77
2018-03-04T17:17:38.639Z,4.80
2018-03-04T17:20:06.964Z,4.63
2018-03-04T17:22:36.053Z,2.90
2018-03-04T17:25:04.496Z,5.10
2018-03-04T17:27:32.780Z,8.82
2018-03-04T17:30:01.108Z,8.30
2018-03-04T17:32:29.566Z,2.20
2018-03-04T17:34:57.854Z,5.03
2018-03-04T17:37:26.262Z,2.00
2018-03-04T17:39:55.353Z,2.90
2018-03-04T17:42:23.738Z,13.38
2018-03-04T17:44:52.074Z,12.90
2018-03-04T17:47:21.162Z,18.45
2018-03-04T17:49:49.508Z,20.08
2018-03-04T17:52:17.818Z,20.42
2018-03-04T17:54:46.241Z,4.70
2018-03-04T17:57:16.256Z,3.10
2018-03-04T17:59:45.402Z,4.20
2018-03-04T18:02:13.766Z,6.75
2018-03-04T18:04:42.135Z,3.40
2018-03-04T18:07:10.477Z,4.03
2018-03-04T18:09:38.851Z,26.77
2018-03-04T18:12:07.360Z,2.23
2018-03-04T18:14:35.696Z,6.03
2018-03-04T18:17:03.988Z,3.25
2018-03-04T18:19:32.348Z,4.60
2018-03-04T18:22:00.675Z,5.62
2018-03-04T18:24:29.126Z,3.90
2018-03-04T18:26:57.494Z,4.47
2018-03-04T18:29:26.020Z,2.93
2018-03-04T18:31:54.438Z,5.50
2018-03-04T18:34:22.758Z,2.67
2018-03-04T18:36:51.074Z,5.90
2018-03-04T18:39:19.415Z,2.85
2018-03-04T18:41:48.796Z,3.35
2018-03-04T18:44:17.327Z,3.60
2018-03-04T18:46:45.946Z,5.00
2018-03-04T18:49:14.273Z,10.30
2018-03-04T18:51:43.386Z,6.03
2018-03-04T18:54:12.623Z,2.00
2018-03-04T18:56:41.487Z,4.40
2018-03-04T18:59:10.709Z,5.73
2018-03-04T19:01:40.032Z,1.08
2018-03-04T19:04:08.388Z,2.30
2018-03-04T19:06:43.548Z,5.57
2018-03-04T19:09:13.922Z,3.93
2018-03-04T19:11:42.389Z,5.40
2018-03-04T19:14:10.747Z,8.27
2018-03-04T19:16:43.632Z,1.35
2018-03-04T19:19:12.002Z,4.60
2018-03-04T19:21:45.051Z,4.68
2018-03-04T19:24:13.643Z,3.13
2018-03-04T19:26:42.204Z,4.18
2018-03-04T19:29:10.656Z,4.00
2018-03-04T19:31:39.103Z,1.92
2018-03-04T19:34:07.488Z,2.08
2018-03-04T19:36:40.689Z,5.45
2018-03-04T19:39:09.019Z,2.90
2018-03-04T19:41:37.414Z,15.13
2018-03-04T19:44:05.773Z,4.07
2018-03-04T19:46:34.887Z,6.43
2018-03-04T19:49:06.917Z,1.03
2018-03-04T19:51:35.313Z,2.05
2018-03-04T19:54:04.172Z,2.50
2018-03-04T19:56:32.521Z,3.50
2018-03-04T19:59:01.721Z,6.18
2018-03-04T20:01:30.082Z,4.30
2018-03-04T20:03:58.547Z,2.10
2018-03-04T20:06:27.013Z,5.95
2018-03-04T20:08:55.513Z,3.63
2018-03-04T20:11:27.403Z,3.40
2018-03-04T20:13:55.835Z,2.53
2018-03-04T20:16:24.257Z,9.68
2018-03-04T20:18:53.619Z,3.53
2018-03-04T20:21:22.013Z,3.30
2018-03-04T20:23:55.343Z,3.65
2018-03-04T20:26:32.476Z,5.72
2018-03-04T20:29:00.936Z,12.03
2018-03-04T20:31:30.135Z,12.43
2018-03-04T20:33:58.563Z,10.63
2018-03-04T20:36:26.924Z,15.80
2018-03-04T20:38:55.379Z,16.47
2018-03-04T20:41:23.736Z,15.07
2018-03-04T20:43:53.760Z,15.18
2018-03-04T20:46:22.517Z,15.63
2018-03-04T20:48:50.941Z,14.97
2018-03-04T20:51:20.000Z,13.55
2018-03-04T20:53:48.571Z,16.70
2018-03-04T20:56:16.896Z,13.82
2018-03-04T20:58:46.962Z,19.10
2018-03-04T21:01:17.272Z,13.50
2018-03-04T21:03:45.685Z,16.87
2018-03-04T21:06:14.126Z,18.08
2018-03-04T21:08:42.809Z,14.07
2018-03-04T21:11:11.206Z,15.70
2018-03-04T21:13:39.591Z,18.17
2018-03-04T21:16:08.892Z,18.23
2018-03-04T21:18:37.294Z,18.43
2018-03-04T21:21:05.752Z,14.90
2018-03-04T21:23:35.313Z,17.37
2018-03-04T21:26:04.001Z,19.45
2018-03-04T21:28:33.177Z,19.20
2018-03-04T21:31:01.472Z,16.42
2018-03-04T21:33:29.949Z,17.87
2018-03-04T21:35:58.357Z,19.98
2018-03-04T21:38:26.706Z,17.75
2018-03-04T21:40:55.124Z,19.67
2018-03-04T21:43:23.403Z,16.77
2018-03-04T21:45:51.738Z,15.60
2018-03-04T21:48:20.127Z,19.25
2018-03-04T21:50:48.492Z,17.83
2018-03-04T21:53:17.084Z,18.85
2018-03-04T21:55:45.416Z,19.12
2018-03-04T21:58:15.674Z,22.50
2018-03-04T22:00:44.171Z,16.52
2018-03-04T22:03:12.547Z,17.92
2018-03-04T22:05:40.873Z,16.45
2018-03-04T22:08:09.330Z,21.12
2018-03-04T22:10:37.661Z,18.95
2018-03-04T22:13:05.981Z,17.35
2018-03-04T22:15:34.284Z,19.10
2018-03-04T22:18:02.589Z,21.92
2018-03-04T22:20:30.948Z,16.87
2018-03-04T22:22:59.259Z,17.42
2018-03-04T22:25:27.666Z,19.90
2018-03-04T22:27:56.195Z,18.02
2018-03-04T22:30:24.497Z,15.27
2018-03-04T22:32:53.770Z,19.25
2018-03-04T22:35:22.781Z,15.82
2018-03-04T22:37:51.210Z,15.85
2018-03-04T22:40:19.778Z,14.67
2018-03-04T22:42:48.499Z,18.55
2018-03-04T22:45:16.814Z,21.87
2018-03-04T22:47:45.105Z,20.17
2018-03-04T22:50:13.530Z,19.97
2018-03-04T22:52:41.981Z,16.00
2018-03-04T22:55:11.075Z,18.20
2018-03-04T22:57:39.358Z,21.62
2018-03-04T23:00:08.424Z,20.30
2018-03-04T23:02:36.730Z,2.50
2018-03-04T23:05:05.018Z,2.00
2018-03-04T23:07:33.326Z,4.22
2018-03-04T23:10:01.634Z,4.03
2018-03-04T23:12:29.915Z,4.55
2018-03-04T23:14:58.225Z,4.30
2018-03-04T23:17:26.507Z,5.68
2018-03-04T23:19:54.826Z,2.83
2018-03-04T23:22:23.453Z,2.05
2018-03-04T23:24:51.850Z,6.47
2018-03-04T23:27:20.161Z,4.03
2018-03-04T23:29:49.324Z,3.73
2018-03-04T23:32:17.733Z,6.50
2018-03-04T23:34:46.083Z,5.40
2018-03-04T23:37:15.114Z,6.47
2018-03-04T23:39:43.404Z,3.03
2018-03-04T23:42:11.687Z,3.47
2018-03-04T23:44:39.997Z,6.57
2018-03-04T23:47:10.617Z,3.92
2018-03-04T23:49:38.943Z,3.73
2018-03-04T23:52:07.330Z,6.05
2018-03-04T23:54:35.601Z,8.77
2018-03-04T23:57:09.074Z,7.28
2018-03-04T23:59:38.059Z,4.90
